Terminal Aerodrome Forecast
Issued by NWS Tuscon, AZ

Home | Current Version | Previous Version | Text Only | Print | Product List | Glossary On
Versions: 1 2 3 4 5 6 7 8 9 10 11 12 13 14 15
000
FTUS45 KTWC 211100
TAFTUS
TAF
KTUS 211124Z 2112/2212 14006KT P6SM SCT120 BKN250
     FM212000 32006KT P6SM VCSH SCT070 BKN110
     FM212300 28007KT P6SM SCT080 BKN120
     FM220700 14007KT P6SM SCT120=

USA.gov is the U.S. government's official web portal to all federal, state and local government web resources and services.